createdAt,value
2023-11-15T00:00:08.655Z,99464.25
2023-11-15T00:05:10.535Z,99441.16
2023-11-15T00:10:12.448Z,99464.19
2023-11-15T00:15:15.503Z,99505.91
2023-11-15T00:20:17.662Z,99497.69
2023-11-15T00:25:19.408Z,99508.63
2023-11-15T00:30:21.092Z,99526.41
2023-11-15T00:35:23.696Z,99504.94
2023-11-15T00:40:25.499Z,99460.47
2023-11-15T00:45:27.216Z,99589.41
2023-11-15T00:50:28.940Z,99532.16
2023-11-15T00:55:30.731Z,99513.81
2023-11-15T01:00:40.820Z,99542.59
2023-11-15T01:05:42.571Z,99509.16
2023-11-15T01:10:44.506Z,99519.03
2023-11-15T01:15:46.424Z,99558.91
2023-11-15T01:20:48.213Z,99567.38
2023-11-15T01:25:49.962Z,99519.50
2023-11-15T01:30:51.650Z,99559.94
2023-11-15T01:35:53.934Z,99559.91
2023-11-15T01:40:55.932Z,99668.16
2023-11-15T01:45:57.904Z,99558.47
2023-11-15T01:51:01.604Z,99593.00
2023-11-15T01:56:04.893Z,99704.72
2023-11-15T02:01:09.743Z,99649.03
2023-11-15T02:06:12.189Z,99585.84
2023-11-15T02:11:14.046Z,99562.75
2023-11-15T02:16:15.809Z,99696.06
2023-11-15T02:21:18.570Z,99531.69
2023-11-15T02:26:21.253Z,99626.56
2023-11-15T02:31:23.039Z,99710.72
2023-11-15T02:36:25.087Z,99705.72
2023-11-15T02:41:27.467Z,99589.63
2023-11-15T02:46:30.182Z,99679.16
2023-11-15T02:51:32.000Z,99765.16
2023-11-15T02:56:33.830Z,99680.16
2023-11-15T03:01:35.743Z,99687.94
2023-11-15T03:06:37.418Z,99611.06
2023-11-15T03:11:39.263Z,99712.97
2023-11-15T03:16:42.091Z,99745.16
2023-11-15T03:21:43.898Z,99602.13
2023-11-15T03:26:45.732Z,99669.75
2023-11-15T03:31:47.570Z,99616.97
2023-11-15T03:36:49.360Z,99635.66
2023-11-15T03:41:51.350Z,99718.13
2023-11-15T03:46:53.160Z,99713.69
2023-11-15T03:51:55.024Z,99729.19
2023-11-15T03:56:56.749Z,99776.28
2023-11-15T04:01:58.640Z,99668.41
2023-11-15T04:07:01.080Z,99699.56
2023-11-15T04:12:03.122Z,99690.56
2023-11-15T04:17:05.605Z,99648.34
2023-11-15T04:22:13.541Z,99869.41
2023-11-15T04:27:16.425Z,99713.22
2023-11-15T04:32:18.089Z,99774.50
2023-11-15T04:37:20.809Z,99809.25
2023-11-15T04:42:22.630Z,99672.28
2023-11-15T04:47:25.535Z,99817.53
2023-11-15T04:52:27.879Z,99734.91
2023-11-15T04:57:30.641Z,99820.34
2023-11-15T05:02:32.466Z,99833.59
2023-11-15T05:07:35.142Z,99711.47
2023-11-15T05:12:37.407Z,99688.53
2023-11-15T05:17:39.205Z,99721.91
2023-11-15T05:22:41.049Z,99934.28
2023-11-15T05:27:42.866Z,99872.41
2023-11-15T05:32:45.165Z,99830.16
2023-11-15T05:37:47.099Z,99755.81
2023-11-15T05:42:48.745Z,99790.25
2023-11-15T05:47:50.491Z,99670.03
2023-11-15T05:52:53.766Z,99695.78
2023-11-15T05:57:55.766Z,99809.25
2023-11-15T06:02:57.868Z,99699.06
2023-11-15T06:08:02.211Z,99790.72
2023-11-15T06:13:07.430Z,99857.00
2023-11-15T06:18:12.128Z,99846.28
2023-11-15T06:23:14.267Z,99898.31
2023-11-15T06:28:15.965Z,99916.78
2023-11-15T06:33:17.825Z,99784.56
2023-11-15T06:38:20.026Z,99869.22
2023-11-15T06:43:22.172Z,99911.81
2023-11-15T06:48:25.450Z,99827.09
2023-11-15T06:53:27.243Z,99828.94
2023-11-15T06:58:28.928Z,99934.13
2023-11-15T07:03:30.730Z,99838.13
2023-11-15T07:08:33.292Z,99877.53
2023-11-15T07:13:36.097Z,99855.63
2023-11-15T07:18:38.722Z,99831.28
2023-11-15T07:23:43.344Z,99874.56
2023-11-15T07:28:48.362Z,99923.72
2023-11-15T07:33:52.389Z,99795.03
2023-11-15T07:38:54.155Z,99846.50
2023-11-15T07:43:55.783Z,99817.88
2023-11-15T07:48:59.878Z,99829.19
2023-11-15T07:54:02.477Z,99835.53
2023-11-15T07:59:05.404Z,99883.22
2023-11-15T08:04:07.673Z,99962.97
2023-11-15T08:09:10.956Z,99799.94
2023-11-15T08:14:12.540Z,99832.63
2023-11-15T08:19:14.641Z,99880.28
2023-11-15T08:24:22.859Z,99993.47
2023-11-15T08:29:24.803Z,99986.22
2023-11-15T08:34:28.191Z,100063.78
2023-11-15T08:39:29.824Z,99904.72
2023-11-15T08:44:31.573Z,99970.34
2023-11-15T08:49:33.305Z,99908.06
2023-11-15T08:54:35.555Z,100070.22
2023-11-15T08:59:37.917Z,99948.97
2023-11-15T09:04:40.138Z,99943.63
2023-11-15T09:09:43.050Z,99930.22
2023-11-15T09:14:45.008Z,99947.41
2023-11-15T09:19:50.238Z,100119.22
2023-11-15T09:25:03.569Z,99957.50
2023-11-15T09:30:10.358Z,100016.59
2023-11-15T09:35:13.597Z,100012.44
2023-11-15T09:40:15.441Z,100142.13
2023-11-15T09:45:21.370Z,100063.91
2023-11-15T09:50:28.029Z,99999.16
2023-11-15T09:55:30.060Z,100081.31
2023-11-15T10:00:31.743Z,100072.38
2023-11-15T10:05:33.788Z,100100.47
2023-11-15T10:10:35.990Z,100040.72
2023-11-15T10:15:37.890Z,100025.69
2023-11-15T10:20:42.297Z,100052.41
2023-11-15T10:25:53.125Z,100110.31
2023-11-15T10:31:05.893Z,100083.38
2023-11-15T10:36:18.092Z,100037.78
2023-11-15T10:41:21.874Z,100094.16
2023-11-15T10:46:32.121Z,100094.31
2023-11-15T10:51:45.572Z,100103.72
2023-11-15T10:56:51.007Z,100055.63
2023-11-15T11:06:28.735Z,99932.53
2023-11-15T11:12:13.874Z,99983.44
2023-11-15T11:18:03.638Z,100004.88
2023-11-15T11:23:12.436Z,99957.50
2023-11-15T11:28:15.310Z,99996.72
2023-11-15T11:33:20.606Z,100020.72
2023-11-15T11:38:39.440Z,100007.03
2023-11-15T11:43:43.215Z,100001.50
2023-11-15T11:48:45.516Z,100101.81
2023-11-15T11:53:49.473Z,99932.16
2023-11-15T11:58:51.329Z,100015.41
2023-11-15T12:04:00.680Z,99971.34
2023-11-15T12:09:02.449Z,99966.63
2023-11-15T12:14:05.460Z,99922.31
2023-11-15T12:19:11.041Z,99931.66
2023-11-15T12:24:14.487Z,99995.31
2023-11-15T12:29:36.931Z,100003.41
2023-11-15T12:34:39.523Z,99987.31
2023-11-15T12:39:41.447Z,99905.91
2023-11-15T12:44:46.586Z,99985.44
2023-11-15T12:49:48.467Z,100075.81
2023-11-15T12:54:57.048Z,99957.28
2023-11-15T12:59:58.768Z,99925.00
2023-11-15T13:05:04.794Z,100071.47
2023-11-15T13:10:07.021Z,99953.31
2023-11-15T13:15:14.816Z,99940.75
2023-11-15T13:20:16.813Z,99968.34
2023-11-15T13:25:18.668Z,99914.81
2023-11-15T13:30:21.365Z,99987.97
2023-11-15T13:35:23.106Z,100071.38
2023-11-15T13:40:25.799Z,99998.84
2023-11-15T13:45:28.474Z,100056.91
2023-11-15T13:50:30.412Z,100028.16
2023-11-15T13:55:32.051Z,100012.06
2023-11-15T14:00:38.257Z,100022.31
2023-11-15T14:05:44.629Z,100034.88
2023-11-15T14:10:46.430Z,100156.06
2023-11-15T14:15:48.175Z,100156.78
2023-11-15T14:20:53.369Z,100171.31
2023-11-15T14:25:55.211Z,100090.59
2023-11-15T14:30:56.969Z,100206.09
2023-11-15T14:35:58.713Z,100155.91
2023-11-15T14:41:02.241Z,100132.97
2023-11-15T14:46:04.326Z,100203.63
2023-11-15T14:51:06.946Z,100248.56
2023-11-15T14:56:09.021Z,100176.41
2023-11-15T15:01:10.798Z,100098.94
2023-11-15T15:06:13.872Z,100233.53
2023-11-15T15:11:15.607Z,100187.59
2023-11-15T15:16:22.210Z,100222.66
2023-11-15T15:21:24.041Z,100271.91
2023-11-15T15:26:25.882Z,100190.81
2023-11-15T15:31:27.636Z,100141.28
2023-11-15T15:36:29.382Z,100169.16
2023-11-15T15:41:31.104Z,100272.16
2023-11-15T15:46:34.292Z,100216.09
2023-11-15T15:51:36.119Z,100226.81
2023-11-15T15:56:37.858Z,100238.50
2023-11-15T16:01:39.578Z,100279.78
2023-11-15T16:06:41.375Z,100151.59
2023-11-15T16:11:43.069Z,100125.22
2023-11-15T16:16:48.392Z,100220.16
2023-11-15T16:21:50.119Z,100242.13
2023-11-15T16:26:51.776Z,100255.34
2023-11-15T16:31:53.464Z,100157.03
2023-11-15T16:36:55.171Z,100163.56
2023-11-15T16:41:56.959Z,100241.22
2023-11-15T16:46:58.858Z,100200.44
2023-11-15T16:52:01.703Z,100148.66
2023-11-15T16:57:06.217Z,100274.28
2023-11-15T17:02:08.325Z,100329.13
2023-11-15T17:07:10.008Z,100237.13
2023-11-15T17:12:13.102Z,100259.78
2023-11-15T17:17:17.336Z,100169.97
2023-11-15T17:22:20.885Z,100236.38
2023-11-15T17:27:25.306Z,100176.91
2023-11-15T17:32:29.644Z,100273.28
2023-11-15T17:37:32.128Z,100283.00
2023-11-15T17:42:34.324Z,100195.72
2023-11-15T17:47:36.060Z,100272.66
2023-11-15T17:52:41.787Z,100212.28
2023-11-15T17:57:45.081Z,100189.97
2023-11-15T18:02:47.656Z,100219.78
2023-11-15T18:07:49.695Z,100163.75
2023-11-15T18:12:51.423Z,100280.47
2023-11-15T18:17:54.855Z,100265.88
2023-11-15T18:22:58.110Z,100349.78
2023-11-15T18:27:59.841Z,100246.47
2023-11-15T18:33:01.942Z,100212.63
2023-11-15T18:38:05.108Z,100303.59
2023-11-15T18:43:07.028Z,100225.47
2023-11-15T18:48:10.763Z,100320.03
2023-11-15T18:53:14.402Z,100118.59
2023-11-15T18:58:16.116Z,100254.47
2023-11-15T19:03:17.901Z,100198.13
2023-11-15T19:08:19.888Z,100155.72
2023-11-15T19:13:22.733Z,100125.63
2023-11-15T19:18:25.830Z,100143.84
2023-11-15T19:23:27.609Z,100232.97
2023-11-15T19:28:29.375Z,100100.16
2023-11-15T19:33:31.913Z,100313.16
2023-11-15T19:38:34.492Z,100123.63
2023-11-15T19:43:37.943Z,100141.50
2023-11-15T19:48:39.711Z,100145.97
2023-11-15T19:53:41.555Z,100081.03
2023-11-15T19:58:44.807Z,100183.63
2023-11-15T20:03:48.994Z,100217.69
2023-11-15T20:08:50.786Z,100166.25
2023-11-15T20:13:52.543Z,100105.03
2023-11-15T20:18:55.006Z,100122.84
2023-11-15T20:23:56.914Z,100208.31
2023-11-15T20:28:58.788Z,100112.38
2023-11-15T20:34:06.400Z,100133.72
2023-11-15T20:39:21.945Z,100133.50
2023-11-15T20:44:26.735Z,100144.38
2023-11-15T20:49:28.480Z,100224.09
2023-11-15T20:54:33.632Z,100216.97
2023-11-15T20:59:37.424Z,100121.16
2023-11-15T21:04:40.685Z,99997.16
2023-11-15T21:09:43.941Z,100126.28
2023-11-15T21:14:45.714Z,100217.19
2023-11-15T21:19:47.515Z,100249.91
2023-11-15T21:24:49.253Z,100185.56
2023-11-15T21:29:50.899Z,100155.66
2023-11-15T21:34:52.569Z,100279.81
2023-11-15T21:39:54.254Z,100105.84
2023-11-15T21:44:56.074Z,100118.69
2023-11-15T21:49:57.784Z,100066.28
2023-11-15T21:54:59.555Z,100010.09
2023-11-15T22:00:02.322Z,100149.66
2023-11-15T22:05:04.436Z,100169.44
2023-11-15T22:10:13.996Z,100006.38
2023-11-15T22:15:20.594Z,100015.94
2023-11-15T22:20:22.952Z,100050.28
2023-11-15T22:25:24.706Z,100085.31
2023-11-15T22:30:26.544Z,100139.19
2023-11-15T22:35:28.220Z,100092.00
2023-11-15T22:40:29.858Z,100120.13
2023-11-15T22:45:32.055Z,100130.88
2023-11-15T22:50:36.590Z,99958.47
2023-11-15T22:55:38.244Z,100027.44
2023-11-15T23:00:40.124Z,99916.19
2023-11-15T23:05:42.478Z,100046.91
2023-11-15T23:10:44.353Z,99930.91
2023-11-15T23:15:49.346Z,100035.88
2023-11-15T23:20:52.557Z,100191.69
2023-11-15T23:25:54.309Z,99932.19
2023-11-15T23:30:56.962Z,100012.19
2023-11-15T23:35:58.911Z,100044.00
2023-11-15T23:41:00.570Z,100023.31
2023-11-15T23:46:03.431Z,99983.00
2023-11-15T23:51:06.133Z,100081.72
2023-11-15T23:56:08.136Z,100153.28
